Terminal Aerodrome Forecast
Issued by NWS Mt. Holly, NJ

Home | Current Version | Previous Version | Text Only | Print | Product List | Glossary On
Versions: 1 2 3 4 5 6 7 8 9 10 11 12 13 14 15 16 17 18 19 20 21
000
FTAK31 PANC 220522
TAFABE
TAF
PABE 220522Z 2206/2306 22009KT P6SM BKN050
     FM221200 17008KT P6SM BKN035
     FM222000 13015G25KT 3SM -SN BLSN BKN020 OVC030
     FM222300 13025G33KT 2SM -SN BLSN OVC012=

USA.gov is the U.S. government's official web portal to all federal, state and local government web resources and services.